sensor_id;sensor_type;location;lat;lon;timestamp;pressure;altitude;pressure_sealevel;temperature;humidity
71109;BME280;59614;51.012;-1.648;2022-12-07T00:00:50;101528.41;;;0.97;100.00
71109;BME280;59614;51.012;-1.648;2022-12-07T00:03:15;101524.84;;;0.95;100.00
71109;BME280;59614;51.012;-1.648;2022-12-07T00:05:41;101518.06;;;0.99;100.00
71109;BME280;59614;51.012;-1.648;2022-12-07T00:08:06;101511.84;;;0.95;100.00
71109;BME280;59614;51.012;-1.648;2022-12-07T00:10:33;101513.69;;;0.98;100.00
71109;BME280;59614;51.012;-1.648;2022-12-07T00:12:59;101508.25;;;0.91;100.00
71109;BME280;59614;51.012;-1.648;2022-12-07T00:15:25;101504.88;;;0.94;100.00
71109;BME280;59614;51.012;-1.648;2022-12-07T00:17:50;101509.13;;;0.92;100.00
71109;BME280;59614;51.012;-1.648;2022-12-07T00:20:16;101503.00;;;0.90;100.00
71109;BME280;59614;51.012;-1.648;2022-12-07T00:22:41;101497.47;;;0.82;100.00
71109;BME280;59614;51.012;-1.648;2022-12-07T00:25:06;101480.94;;;0.80;100.00
71109;BME280;59614;51.012;-1.648;2022-12-07T00:27:32;101493.88;;;0.79;100.00
71109;BME280;59614;51.012;-1.648;2022-12-07T00:29:57;101497.78;;;0.90;100.00
71109;BME280;59614;51.012;-1.648;2022-12-07T00:32:23;101496.78;;;1.09;100.00
71109;BME280;59614;51.012;-1.648;2022-12-07T00:34:48;101489.19;;;1.36;100.00
71109;BME280;59614;51.012;-1.648;2022-12-07T00:37:13;101485.81;;;1.62;100.00
71109;BME280;59614;51.012;-1.648;2022-12-07T00:39:39;101492.19;;;1.70;100.00
71109;BME280;59614;51.012;-1.648;2022-12-07T00:42:04;101482.94;;;1.78;100.00
71109;BME280;59614;51.012;-1.648;2022-12-07T00:44:29;101487.47;;;1.84;100.00
71109;BME280;59614;51.012;-1.648;2022-12-07T00:46:55;101481.69;;;1.91;100.00
71109;BME280;59614;51.012;-1.648;2022-12-07T00:49:21;101481.69;;;1.91;100.00
71109;BME280;59614;51.012;-1.648;2022-12-07T00:51:48;101485.28;;;1.95;100.00
71109;BME280;59614;51.012;-1.648;2022-12-07T00:54:14;101482.72;;;1.96;100.00
71109;BME280;59614;51.012;-1.648;2022-12-07T00:56:39;101482.69;;;1.95;100.00
71109;BME280;59614;51.012;-1.648;2022-12-07T00:59:05;101482.72;;;1.96;100.00
71109;BME280;59614;51.012;-1.648;2022-12-07T01:01:35;101489.75;;;1.99;100.00
71109;BME280;59614;51.012;-1.648;2022-12-07T01:04:01;101493.25;;;1.99;100.00
71109;BME280;59614;51.012;-1.648;2022-12-07T01:06:27;101486.25;;;1.98;100.00
71109;BME280;59614;51.012;-1.648;2022-12-07T01:08:53;101486.44;;;2.03;100.00
71109;BME280;59614;51.012;-1.648;2022-12-07T01:11:21;101490.84;;;2.06;100.00
71109;BME280;59614;51.012;-1.648;2022-12-07T01:13:53;101488.31;;;2.07;100.00
71109;BME280;59614;51.012;-1.648;2022-12-07T01:16:20;101482.28;;;2.08;100.00
71109;BME280;59614;51.012;-1.648;2022-12-07T01:18:48;101477.81;;;2.06;100.00
71109;BME280;59614;51.012;-1.648;2022-12-07T01:21:20;101481.44;;;2.09;100.00
71109;BME280;59614;51.012;-1.648;2022-12-07T01:23:46;101472.03;;;2.13;100.00
71109;BME280;59614;51.012;-1.648;2022-12-07T01:26:15;101481.44;;;2.09;100.00
71109;BME280;59614;51.012;-1.648;2022-12-07T01:28:41;101475.34;;;2.09;100.00
71109;BME280;59614;51.012;-1.648;2022-12-07T01:31:13;101475.47;;;2.12;100.00
71109;BME280;59614;51.012;-1.648;2022-12-07T01:33:41;101479.84;;;2.13;100.00
71109;BME280;59614;51.012;-1.648;2022-12-07T01:36:21;101479.09;;;2.17;100.00
71109;BME280;59614;51.012;-1.648;2022-12-07T01:38:48;101471.94;;;2.11;100.00
71109;BME280;59614;51.012;-1.648;2022-12-07T01:41:16;101472.69;;;2.07;100.00
71109;BME280;59614;51.012;-1.648;2022-12-07T01:44:14;101474.50;;;2.10;100.00
71109;BME280;59614;51.012;-1.648;2022-12-07T01:46:42;101477.91;;;2.07;100.00
71109;BME280;59614;51.012;-1.648;2022-12-07T01:49:12;101474.06;;;1.97;100.00
71109;BME280;59614;51.012;-1.648;2022-12-07T01:51:40;101468.75;;;1.94;100.00
71109;BME280;59614;51.012;-1.648;2022-12-07T01:54:08;101475.72;;;1.95;100.00
71109;BME280;59614;51.012;-1.648;2022-12-07T01:56:34;101481.84;;;1.96;100.00
71109;BME280;59614;51.012;-1.648;2022-12-07T01:59:01;101483.94;;;2.06;100.00
71109;BME280;59614;51.012;-1.648;2022-12-07T02:01:27;101482.31;;;2.10;100.00
71109;BME280;59614;51.012;-1.648;2022-12-07T02:03:53;101480.66;;;2.12;100.00
71109;BME280;59614;51.012;-1.648;2022-12-07T02:06:21;101484.66;;;2.02;100.00
71109;BME280;59614;51.012;-1.648;2022-12-07T02:08:49;101481.88;;;1.97;100.00
71109;BME280;59614;51.012;-1.648;2022-12-07T02:11:14;101476.81;;;2.00;100.00
71109;BME280;59614;51.012;-1.648;2022-12-07T02:13:42;101487.56;;;2.11;100.00
71109;BME280;59614;51.012;-1.648;2022-12-07T02:24:25;101486.47;;;2.05;100.00
71109;BME280;59614;51.012;-1.648;2022-12-07T02:32:32;101489.41;;;2.14;100.00
71109;BME280;59614;51.012;-1.648;2022-12-07T02:35:21;101484.31;;;2.17;100.00
71109;BME280;59614;51.012;-1.648;2022-12-07T02:37:56;101485.88;;;2.12;100.00
71109;BME280;59614;51.012;-1.648;2022-12-07T02:40:53;101479.94;;;2.16;100.00
71109;BME280;59614;51.012;-1.648;2022-12-07T02:43:27;101472.03;;;2.13;100.00
71109;BME280;59614;51.012;-1.648;2022-12-07T02:45:57;101475.66;;;2.18;100.00
71109;BME280;59614;51.012;-1.648;2022-12-07T02:48:26;101472.34;;;2.22;100.00
71109;BME280;59614;51.012;-1.648;2022-12-07T02:50:53;101480.16;;;2.22;100.00
71109;BME280;59614;51.012;-1.648;2022-12-07T02:53:31;101474.50;;;2.10;100.00
71109;BME280;59614;51.012;-1.648;2022-12-07T02:55:59;101473.28;;;2.00;100.00
71109;BME280;59614;51.012;-1.648;2022-12-07T03:01:03;101465.56;;;2.02;100.00
71109;BME280;59614;51.012;-1.648;2022-12-07T03:03:30;101468.31;;;2.06;100.00
71109;BME280;59614;51.012;-1.648;2022-12-07T03:06:05;101457.75;;;2.02;100.00
71109;BME280;59614;51.012;-1.648;2022-12-07T03:08:44;101460.44;;;2.05;100.00
71109;BME280;59614;51.012;-1.648;2022-12-07T03:11:13;101463.88;;;2.04;100.00
71109;BME280;59614;51.012;-1.648;2022-12-07T03:14:13;101469.03;;;2.02;100.00
71109;BME280;59614;51.012;-1.648;2022-12-07T03:17:06;101469.06;;;2.04;100.00
71109;BME280;59614;51.012;-1.648;2022-12-07T03:19:30;101463.47;;;2.17;100.00
71109;BME280;59614;51.012;-1.648;2022-12-07T03:22:00;101466.69;;;2.10;100.00
71109;BME280;59614;51.012;-1.648;2022-12-07T03:24:33;101466.69;;;2.10;100.00
71109;BME280;59614;51.012;-1.648;2022-12-07T03:27:06;101463.78;;;2.00;100.00
71109;BME280;59614;51.012;-1.648;2022-12-07T03:29:46;101474.63;;;2.13;100.00
71109;BME280;59614;51.012;-1.648;2022-12-07T03:35:12;101467.34;;;2.03;100.00
71109;BME280;59614;51.012;-1.648;2022-12-07T03:40:37;101474.91;;;1.96;100.00
71109;BME280;59614;51.012;-1.648;2022-12-07T03:43:05;101464.66;;;2.01;100.00
71109;BME280;59614;51.012;-1.648;2022-12-07T03:48:36;101467.22;;;1.99;100.00
71109;BME280;59614;51.012;-1.648;2022-12-07T03:51:19;101466.38;;;2.00;100.00
71109;BME280;59614;51.012;-1.648;2022-12-07T03:56:37;101456.69;;;1.96;100.00
71109;BME280;59614;51.012;-1.648;2022-12-07T03:59:04;101458.44;;;1.97;100.00
71109;BME280;59614;51.012;-1.648;2022-12-07T04:01:31;101461.25;;;2.04;100.00
71109;BME280;59614;51.012;-1.648;2022-12-07T04:03:56;101464.53;;;1.98;100.00
71109;BME280;59614;51.012;-1.648;2022-12-07T04:06:22;101469.75;;;1.98;100.00
71109;BME280;59614;51.012;-1.648;2022-12-07T04:08:47;101466.44;;;2.02;100.00
71109;BME280;59614;51.012;-1.648;2022-12-07T04:11:13;101464.66;;;2.01;100.00
71109;BME280;59614;51.012;-1.648;2022-12-07T04:13:38;101455.22;;;2.05;100.00
71109;BME280;59614;51.012;-1.648;2022-12-07T04:16:22;101467.13;;;1.98;100.00
71109;BME280;59614;51.012;-1.648;2022-12-07T04:18:48;101461.03;;;1.96;100.00
71109;BME280;59614;51.012;-1.648;2022-12-07T04:21:13;101457.34;;;1.91;100.00
71109;BME280;59614;51.012;-1.648;2022-12-07T04:23:38;101450.44;;;1.91;100.00
71109;BME280;59614;51.012;-1.648;2022-12-07T04:26:04;101452.94;;;1.88;100.00
71109;BME280;59614;51.012;-1.648;2022-12-07T04:28:29;101448.59;;;1.89;100.00
71109;BME280;59614;51.012;-1.648;2022-12-07T04:30:55;101453.78;;;1.89;100.00
71109;BME280;59614;51.012;-1.648;2022-12-07T04:33:20;101456.47;;;1.90;100.00
71109;BME280;59614;51.012;-1.648;2022-12-07T04:35:45;101458.34;;;1.94;100.00
71109;BME280;59614;51.012;-1.648;2022-12-07T04:38:11;101449.81;;;1.98;100.00
71109;BME280;59614;51.012;-1.648;2022-12-07T04:40:36;101447.38;;;2.03;100.00
71109;BME280;59614;51.012;-1.648;2022-12-07T04:43:02;101439.53;;;2.02;100.00
71109;BME280;59614;51.012;-1.648;2022-12-07T04:45:27;101437.81;;;2.04;100.00
71109;BME280;59614;51.012;-1.648;2022-12-07T04:47:53;101441.19;;;1.99;100.00
71109;BME280;59614;51.012;-1.648;2022-12-07T04:50:18;101442.31;;;2.08;100.00
71109;BME280;59614;51.012;-1.648;2022-12-07T04:52:43;101435.22;;;2.04;100.00
71109;BME280;59614;51.012;-1.648;2022-12-07T04:55:09;101436.84;;;2.00;100.00
71109;BME280;59614;51.012;-1.648;2022-12-07T04:57:34;101436.69;;;1.95;100.00
71109;BME280;59614;51.012;-1.648;2022-12-07T05:00:00;101436.78;;;1.98;100.00
71109;BME280;59614;51.012;-1.648;2022-12-07T05:02:25;101442.13;;;2.02;100.00
71109;BME280;59614;51.012;-1.648;2022-12-07T05:04:50;101435.19;;;2.02;100.00
71109;BME280;59614;51.012;-1.648;2022-12-07T05:07:16;101437.09;;;2.08;100.00
71109;BME280;59614;51.012;-1.648;2022-12-07T05:09:41;101433.53;;;2.04;100.00
71109;BME280;59614;51.012;-1.648;2022-12-07T05:12:07;101438.06;;;2.10;100.00
71109;BME280;59614;51.012;-1.648;2022-12-07T05:14:32;101435.72;;;2.18;100.00
71109;BME280;59614;51.012;-1.648;2022-12-07T05:16:58;101436.72;;;2.21;100.00
71109;BME280;59614;51.012;-1.648;2022-12-07T05:19:23;101446.22;;;2.21;100.00
71109;BME280;59614;51.012;-1.648;2022-12-07T05:21:48;101448.91;;;2.22;100.00
71109;BME280;59614;51.012;-1.648;2022-12-07T05:24:15;101447.97;;;2.20;100.00
71109;BME280;59614;51.012;-1.648;2022-12-07T05:27:06;101451.13;;;2.11;100.00
71109;BME280;59614;51.012;-1.648;2022-12-07T05:29:57;101444.06;;;2.07;100.00
71109;BME280;59614;51.012;-1.648;2022-12-07T05:32:48;101447.91;;;1.94;100.00
71109;BME280;59614;51.012;-1.648;2022-12-07T05:35:39;101443.38;;;1.89;100.00
71109;BME280;59614;51.012;-1.648;2022-12-07T05:38:29;101441.69;;;1.89;100.00
71109;BME280;59614;51.012;-1.648;2022-12-07T08:01:15;101442.06;;;1.51;100.00
71109;BME280;59614;51.012;-1.648;2022-12-07T08:03:41;101438.81;;;1.57;100.00
71109;BME280;59614;51.012;-1.648;2022-12-07T08:06:07;101447.59;;;1.61;100.00
71109;BME280;59614;51.012;-1.648;2022-12-07T08:08:32;101451.91;;;1.60;100.00
71109;BME280;59614;51.012;-1.648;2022-12-07T08:10:57;101447.53;;;1.59;100.00
71109;BME280;59614;51.012;-1.648;2022-12-07T08:13:26;101449.47;;;1.65;100.00
71109;BME280;59614;51.012;-1.648;2022-12-07T08:15:51;101455.28;;;1.58;99.34
71109;BME280;59614;51.012;-1.648;2022-12-07T08:18:17;101444.69;;;1.51;99.63
71109;BME280;59614;51.012;-1.648;2022-12-07T08:20:42;101449.78;;;1.50;100.00
71109;BME280;59614;51.012;-1.648;2022-12-07T08:23:09;101453.00;;;1.43;100.00
71109;BME280;59614;51.012;-1.648;2022-12-07T08:25:35;101443.25;;;1.37;100.00
71109;BME280;59614;51.012;-1.648;2022-12-07T08:28:01;101451.41;;;1.23;100.00
71109;BME280;59614;51.012;-1.648;2022-12-07T08:30:28;101450.34;;;1.18;100.00
71109;BME280;59614;51.012;-1.648;2022-12-07T08:32:55;101461.53;;;1.16;100.00
71109;BME280;59614;51.012;-1.648;2022-12-07T08:35:21;101454.91;;;1.01;100.00
71109;BME280;59614;51.012;-1.648;2022-12-07T08:37:47;101453.16;;;1.00;99.63
71109;BME280;59614;51.012;-1.648;2022-12-07T08:40:13;101456.31;;;0.93;100.00
71109;BME280;59614;51.012;-1.648;2022-12-07T08:42:53;101463.16;;;0.91;100.00
71109;BME280;59614;51.012;-1.648;2022-12-07T08:45:20;101466.47;;;0.87;100.00
71109;BME280;59614;51.012;-1.648;2022-12-07T08:47:50;101459.50;;;0.86;100.00
71109;BME280;59614;51.012;-1.648;2022-12-07T08:50:18;101467.75;;;0.75;100.00
71109;BME280;59614;51.012;-1.648;2022-12-07T08:52:43;101468.72;;;0.77;100.00
71109;BME280;59614;51.012;-1.648;2022-12-07T08:55:11;101463.31;;;0.73;100.00
71109;BME280;59614;51.012;-1.648;2022-12-07T08:57:38;101465.84;;;0.71;100.00
71109;BME280;59614;51.012;-1.648;2022-12-07T09:00:05;101467.88;;;0.79;100.00
71109;BME280;59614;51.012;-1.648;2022-12-07T09:02:31;101459.31;;;0.81;100.00
71109;BME280;59614;51.012;-1.648;2022-12-07T09:04:57;101461.91;;;0.81;100.00
71109;BME280;59614;51.012;-1.648;2022-12-07T09:07:22;101454.44;;;0.89;100.00
71109;BME280;59614;51.012;-1.648;2022-12-07T09:09:48;101450.63;;;0.81;100.00
71109;BME280;59614;51.012;-1.648;2022-12-07T09:12:13;101448.63;;;0.96;100.00
71109;BME280;59614;51.012;-1.648;2022-12-07T09:14:39;101452.75;;;0.91;99.52
71109;BME280;59614;51.012;-1.648;2022-12-07T09:17:09;101453.41;;;1.08;99.61
71109;BME280;59614;51.012;-1.648;2022-12-07T09:19:36;101455.16;;;1.07;99.72
71109;BME280;59614;51.012;-1.648;2022-12-07T09:22:02;101452.53;;;1.30;100.00
71109;BME280;59614;51.012;-1.648;2022-12-07T09:24:27;101454.06;;;1.48;99.23
71109;BME280;59614;51.012;-1.648;2022-12-07T09:26:53;101450.78;;;1.53;98.30
71109;BME280;59614;51.012;-1.648;2022-12-07T09:29:18;101449.56;;;1.66;97.82
71109;BME280;59614;51.012;-1.648;2022-12-07T09:31:43;101457.44;;;1.69;97.56
71109;BME280;59614;51.012;-1.648;2022-12-07T09:34:09;101452.59;;;1.79;96.70
71109;BME280;59614;51.012;-1.648;2022-12-07T09:36:35;101457.38;;;1.92;96.12
71109;BME280;59614;51.012;-1.648;2022-12-07T09:39:00;101453.44;;;2.04;96.34
71109;BME280;59614;51.012;-1.648;2022-12-07T09:41:27;101452.06;;;2.13;95.31
71109;BME280;59614;51.012;-1.648;2022-12-07T09:44:04;101446.13;;;2.18;94.42
71109;BME280;59614;51.012;-1.648;2022-12-07T09:46:34;101444.09;;;2.35;93.45
71109;BME280;59614;51.012;-1.648;2022-12-07T09:49:00;101444.44;;;2.45;93.03
71109;BME280;59614;51.012;-1.648;2022-12-07T09:51:26;101446.19;;;2.45;92.01
71109;BME280;59614;51.012;-1.648;2022-12-07T09:53:53;101449.91;;;2.53;92.14
71109;BME280;59614;51.012;-1.648;2022-12-07T09:56:21;101449.63;;;2.44;93.40
71109;BME280;59614;51.012;-1.648;2022-12-07T09:58:47;101445.50;;;2.51;92.16
71109;BME280;59614;51.012;-1.648;2022-12-07T10:01:19;101440.00;;;2.41;90.68
71109;BME280;59614;51.012;-1.648;2022-12-07T10:04:06;101431.66;;;2.52;92.17
71109;BME280;59614;51.012;-1.648;2022-12-07T10:06:34;101424.00;;;2.85;92.40
71109;BME280;59614;51.012;-1.648;2022-12-07T10:08:59;101419.47;;;2.80;90.90
71109;BME280;59614;51.012;-1.648;2022-12-07T10:11:25;101420.41;;;2.82;90.94
71109;BME280;59614;51.012;-1.648;2022-12-07T10:13:52;101424.22;;;2.91;91.31
71109;BME280;59614;51.012;-1.648;2022-12-07T10:18:49;101416.06;;;2.82;88.49
71109;BME280;59614;51.012;-1.648;2022-12-07T10:21:17;101419.16;;;2.98;90.32
71109;BME280;59614;51.012;-1.648;2022-12-07T10:26:38;101406.88;;;3.22;88.64
71109;BME280;59614;51.012;-1.648;2022-12-07T10:31:43;101407.69;;;3.20;88.14
71109;BME280;59614;51.012;-1.648;2022-12-07T10:34:24;101402.63;;;3.26;89.25
71109;BME280;59614;51.012;-1.648;2022-12-07T10:36:51;101405.66;;;3.11;87.50
71109;BME280;59614;51.012;-1.648;2022-12-07T10:39:21;101402.03;;;3.06;89.13
71109;BME280;59614;51.012;-1.648;2022-12-07T10:41:58;101393.81;;;2.93;88.13
71109;BME280;59614;51.012;-1.648;2022-12-07T10:44:27;101387.41;;;3.11;89.13
71109;BME280;59614;51.012;-1.648;2022-12-07T10:50:10;101388.88;;;3.32;88.22
71109;BME280;59614;51.012;-1.648;2022-12-07T11:15:53;101360.41;;;3.73;85.40
71109;BME280;59614;51.012;-1.648;2022-12-07T11:18:26;101357.22;;;3.51;86.28
71109;BME280;59614;51.012;-1.648;2022-12-07T11:23:48;101349.81;;;3.35;86.53
71109;BME280;59614;51.012;-1.648;2022-12-07T11:31:52;101336.16;;;3.77;86.38
71109;BME280;59614;51.012;-1.648;2022-12-07T11:37:15;101324.22;;;3.53;85.99
71109;BME280;59614;51.012;-1.648;2022-12-07T11:39:50;101324.22;;;3.53;84.78
71109;BME280;59614;51.012;-1.648;2022-12-07T11:42:23;101323.88;;;3.41;85.39
71109;BME280;59614;51.012;-1.648;2022-12-07T11:45:02;101315.97;;;3.38;85.61
71109;BME280;59614;51.012;-1.648;2022-12-07T11:47:35;101314.28;;;3.40;85.91
71109;BME280;59614;51.012;-1.648;2022-12-07T11:50:20;101316.63;;;3.63;85.90
71109;BME280;59614;51.012;-1.648;2022-12-07T11:53:10;101313.78;;;3.53;85.59
71109;BME280;59614;51.012;-1.648;2022-12-07T12:03:52;101286.69;;;3.83;85.25
71109;BME280;59614;51.012;-1.648;2022-12-07T12:06:19;101287.59;;;3.84;84.45
71109;BME280;59614;51.012;-1.648;2022-12-07T12:11:51;101281.78;;;3.96;84.56
71109;BME280;59614;51.012;-1.648;2022-12-07T12:23:17;101273.09;;;3.97;84.13
71109;BME280;59614;51.012;-1.648;2022-12-07T12:25:47;101275.34;;;4.16;84.75
71109;BME280;59614;51.012;-1.648;2022-12-07T12:28:24;101273.69;;;4.22;83.69
71109;BME280;59614;51.012;-1.648;2022-12-07T12:33:44;101269.50;;;4.28;83.95
71109;BME280;59614;51.012;-1.648;2022-12-07T12:44:02;101252.22;;;4.76;83.54
71109;BME280;59614;51.012;-1.648;2022-12-07T12:49:32;101233.09;;;4.79;82.47
71109;BME280;59614;51.012;-1.648;2022-12-07T12:54:38;101238.56;;;4.91;82.32
71109;BME280;59614;51.012;-1.648;2022-12-07T12:57:27;101239.31;;;4.84;81.72
71109;BME280;59614;51.012;-1.648;2022-12-07T13:15:48;101210.81;;;4.98;80.93
71109;BME280;59614;51.012;-1.648;2022-12-07T13:23:35;101200.81;;;5.24;79.83
71109;BME280;59614;51.012;-1.648;2022-12-07T13:26:23;101195.56;;;5.23;79.85
71109;BME280;59614;51.012;-1.648;2022-12-07T13:29:11;101190.03;;;5.07;79.89
71109;BME280;59614;51.012;-1.648;2022-12-07T13:31:50;101197.00;;;5.05;80.75
71109;BME280;59614;51.012;-1.648;2022-12-07T13:34:36;101190.03;;;5.06;81.06
71109;BME280;59614;51.012;-1.648;2022-12-07T13:44:57;101176.47;;;5.30;79.21
71109;BME280;59614;51.012;-1.648;2022-12-07T13:47:45;101176.31;;;5.21;78.93
71109;BME280;59614;51.012;-1.648;2022-12-07T13:50:30;101171.72;;;5.07;79.72
71109;BME280;59614;51.012;-1.648;2022-12-07T13:52:58;101176.31;;;5.19;80.11
71109;BME280;59614;51.012;-1.648;2022-12-07T13:55:24;101161.69;;;5.31;79.44
71109;BME280;59614;51.012;-1.648;2022-12-07T13:57:51;101155.38;;;5.19;78.81
71109;BME280;59614;51.012;-1.648;2022-12-07T14:03:01;101146.44;;;5.06;79.30
71109;BME280;59614;51.012;-1.648;2022-12-07T14:05:31;101152.84;;;4.76;80.59
71109;BME280;59614;51.012;-1.648;2022-12-07T14:08:02;101144.09;;;4.74;80.19
71109;BME280;59614;51.012;-1.648;2022-12-07T14:10:34;101139.25;;;4.96;80.50
71109;BME280;59614;51.012;-1.648;2022-12-07T14:13:03;101134.13;;;5.01;79.90
71109;BME280;59614;51.012;-1.648;2022-12-07T14:15:50;101140.38;;;5.10;80.45
71109;BME280;59614;51.012;-1.648;2022-12-07T14:21:05;101130.44;;;4.91;79.19
71109;BME280;59614;51.012;-1.648;2022-12-07T14:23:31;101133.81;;;4.84;79.08
71109;BME280;59614;51.012;-1.648;2022-12-07T14:26:18;101135.69;;;4.92;79.97
71109;BME280;59614;51.012;-1.648;2022-12-07T14:28:44;101132.44;;;4.57;79.37
71109;BME280;59614;51.012;-1.648;2022-12-07T14:31:16;101125.34;;;4.51;80.69
71109;BME280;59614;51.012;-1.648;2022-12-07T14:33:42;101125.06;;;4.37;81.85
71109;BME280;59614;51.012;-1.648;2022-12-07T14:36:12;101123.97;;;4.26;81.55
71109;BME280;59614;51.012;-1.648;2022-12-07T14:38:38;101125.56;;;4.19;81.66
71109;BME280;59614;51.012;-1.648;2022-12-07T14:41:04;101124.50;;;4.09;81.33
71109;BME280;59614;51.012;-1.648;2022-12-07T14:43:50;101121.69;;;4.00;82.58
71109;BME280;59614;51.012;-1.648;2022-12-07T14:46:15;101121.41;;;3.88;82.75
71109;BME280;59614;51.012;-1.648;2022-12-07T14:48:41;101124.66;;;3.76;82.82
71109;BME280;59614;51.012;-1.648;2022-12-07T14:51:10;101118.44;;;3.72;83.44
71109;BME280;59614;51.012;-1.648;2022-12-07T14:53:41;101122.69;;;3.67;84.07
71109;BME280;59614;51.012;-1.648;2022-12-07T14:56:07;101116.31;;;3.54;84.00
71109;BME280;59614;51.012;-1.648;2022-12-07T14:58:33;101108.13;;;3.40;84.12
71109;BME280;59614;51.012;-1.648;2022-12-07T15:00:59;101110.69;;;3.37;84.93
71109;BME280;59614;51.012;-1.648;2022-12-07T15:03:25;101106.31;;;3.36;85.90
71109;BME280;59614;51.012;-1.648;2022-12-07T15:05:50;101097.56;;;3.34;85.24
71109;BME280;59614;51.012;-1.648;2022-12-07T15:08:16;101103.53;;;3.30;85.20
71109;BME280;59614;51.012;-1.648;2022-12-07T15:10:42;101095.50;;;3.20;85.80
71109;BME280;59614;51.012;-1.648;2022-12-07T15:13:07;101101.66;;;3.24;86.45
71109;BME280;59614;51.012;-1.648;2022-12-07T15:15:53;101092.16;;;3.26;86.21
71109;BME280;59614;51.012;-1.648;2022-12-07T15:18:20;101097.97;;;3.14;86.87
71109;BME280;59614;51.012;-1.648;2022-12-07T15:20:46;101083.06;;;3.10;87.44
71109;BME280;59614;51.012;-1.648;2022-12-07T15:23:12;101081.31;;;3.09;87.44
71109;BME280;59614;51.012;-1.648;2022-12-07T15:25:45;101082.94;;;3.04;88.29
71109;BME280;59614;51.012;-1.648;2022-12-07T15:28:11;101075.94;;;3.03;88.61
71109;BME280;59614;51.012;-1.648;2022-12-07T15:30:37;101075.78;;;2.97;88.48
71109;BME280;59614;51.012;-1.648;2022-12-07T15:33:03;101082.66;;;2.93;89.17
71109;BME280;59614;51.012;-1.648;2022-12-07T15:35:28;101080.88;;;2.92;88.79
71109;BME280;59614;51.012;-1.648;2022-12-07T15:37:54;101073.66;;;2.80;89.40
71109;BME280;59614;51.012;-1.648;2022-12-07T15:40:19;101078.69;;;2.74;88.61
71109;BME280;59614;51.012;-1.648;2022-12-07T15:42:44;101065.44;;;2.66;89.52
71109;BME280;59614;51.012;-1.648;2022-12-07T15:45:10;101071.47;;;2.63;89.89
71109;BME280;59614;51.012;-1.648;2022-12-07T15:47:38;101066.09;;;2.57;90.26
71109;BME280;59614;51.012;-1.648;2022-12-07T15:50:05;101072.75;;;2.46;90.17
71109;BME280;59614;51.012;-1.648;2022-12-07T15:52:31;101078.72;;;2.42;90.75
71109;BME280;59614;51.012;-1.648;2022-12-07T15:54:56;101067.25;;;2.37;90.63
71109;BME280;59614;51.012;-1.648;2022-12-07T15:57:22;101059.38;;;2.34;90.45
71109;BME280;59614;51.012;-1.648;2022-12-07T15:59:47;101059.13;;;2.24;90.30
71109;BME280;59614;51.012;-1.648;2022-12-07T16:02:13;101066.84;;;2.21;91.18
71109;BME280;59614;51.012;-1.648;2022-12-07T16:04:38;101067.38;;;2.09;91.52
71109;BME280;59614;51.012;-1.648;2022-12-07T16:07:04;101064.56;;;2.02;91.68
71109;BME280;59614;51.012;-1.648;2022-12-07T16:09:30;101061.88;;;1.98;92.13
71109;BME280;59614;51.012;-1.648;2022-12-07T16:11:56;101058.25;;;1.93;91.81
71109;BME280;59614;51.012;-1.648;2022-12-07T16:14:21;101058.91;;;1.86;92.56
71109;BME280;59614;51.012;-1.648;2022-12-07T16:16:47;101070.16;;;1.85;92.40
71109;BME280;59614;51.012;-1.648;2022-12-07T16:19:13;101064.97;;;1.87;92.91
71109;BME280;59614;51.012;-1.648;2022-12-07T16:21:39;101063.25;;;1.85;92.44
71109;BME280;59614;51.012;-1.648;2022-12-07T16:24:04;101063.94;;;1.80;92.51
71109;BME280;59614;51.012;-1.648;2022-12-07T16:26:30;101064.56;;;1.73;93.61
71109;BME280;59614;51.012;-1.648;2022-12-07T16:28:56;101070.31;;;1.61;93.55
71109;BME280;59614;51.012;-1.648;2022-12-07T16:31:24;101064.03;;;1.54;93.86
71109;BME280;59614;51.012;-1.648;2022-12-07T16:33:51;101065.72;;;1.53;93.87
71109;BME280;59614;51.012;-1.648;2022-12-07T16:36:18;101058.69;;;1.49;93.74
71109;BME280;59614;51.012;-1.648;2022-12-07T16:38:43;101063.50;;;1.37;94.26
71109;BME280;59614;51.012;-1.648;2022-12-07T16:41:10;101059.94;;;1.33;94.39
71109;BME280;59614;51.012;-1.648;2022-12-07T16:43:36;101061.63;;;1.33;94.37
71109;BME280;59614;51.012;-1.648;2022-12-07T16:46:02;101052.69;;;1.23;94.49
71109;BME280;59614;51.012;-1.648;2022-12-07T16:48:28;101055.16;;;1.20;94.56
71109;BME280;59614;51.012;-1.648;2022-12-07T16:50:54;101061.09;;;1.16;94.87
71109;BME280;59614;51.012;-1.648;2022-12-07T16:53:20;101050.50;;;1.10;94.43
71109;BME280;59614;51.012;-1.648;2022-12-07T16:55:46;101053.84;;;1.05;94.51
71109;BME280;59614;51.012;-1.648;2022-12-07T16:58:16;101040.94;;;1.08;94.46
71109;BME280;59614;51.012;-1.648;2022-12-07T17:00:43;101046.69;;;0.98;94.41
71109;BME280;59614;51.012;-1.648;2022-12-07T17:03:09;101043.09;;;0.95;94.73
71109;BME280;59614;51.012;-1.648;2022-12-07T17:05:40;101042.09;;;0.91;94.81
71109;BME280;59614;51.012;-1.648;2022-12-07T17:08:07;101047.94;;;0.84;94.90
71109;BME280;59614;51.012;-1.648;2022-12-07T17:10:34;101040.25;;;0.87;94.95
71109;BME280;59614;51.012;-1.648;2022-12-07T17:13:03;101041.03;;;0.84;95.05
71109;BME280;59614;51.012;-1.648;2022-12-07T17:16:03;101044.19;;;0.75;95.12
71109;BME280;59614;51.012;-1.648;2022-12-07T17:18:33;101043.44;;;0.80;95.56
71109;BME280;59614;51.012;-1.648;2022-12-07T17:21:08;101035.34;;;0.70;95.22
71109;BME280;59614;51.012;-1.648;2022-12-07T17:23:35;101032.66;;;0.67;95.03
71109;BME280;59614;51.012;-1.648;2022-12-07T17:26:14;101028.19;;;0.63;95.42
71109;BME280;59614;51.012;-1.648;2022-12-07T17:28:40;101032.56;;;0.64;95.34
71109;BME280;59614;51.012;-1.648;2022-12-07T17:31:10;101030.63;;;0.58;95.53
71109;BME280;59614;51.012;-1.648;2022-12-07T17:33:36;101022.28;;;0.67;95.70
71109;BME280;59614;51.012;-1.648;2022-12-07T17:36:10;101027.47;;;0.67;95.49
71109;BME280;59614;51.012;-1.648;2022-12-07T17:38:36;101025.59;;;0.63;95.48
71109;BME280;59614;51.012;-1.648;2022-12-07T17:41:09;101027.22;;;0.59;95.96